Tuesday, September 30, 2014, 7:48 AM EDT

KW99, Petersburg, Grant County Airport

Location: Petersburg, WV, United States Lat: 38.983
Local Time: 7:48 AM EDT (11:48 GMT) Lon: -79.133
Time Zone: US/Eastern Elev: 961 ft

Show me the last for .
Show Decoded

2014-09-30 07:35 METAR KW99 301135Z AUTO 00000KT M1/4SM FG OVC001 A2996 RMK AO2 =
2014-09-30 07:15 METAR KW99 301115Z AUTO 00000KT 1/4SM FG OVC001 A2996 RMK AO2 =
2014-09-30 06:55 METAR KW99 301055Z AUTO 00000KT 1/4SM FG OVC001 A2995 RMK AO2 =
2014-09-30 06:35 METAR KW99 301035Z AUTO 00000KT 1/4SM FG OVC001 A2994 RMK AO2 =
2014-09-30 06:15 METAR KW99 301015Z AUTO 00000KT 1/4SM FG OVC001 A2994 RMK AO2 =
2014-09-30 05:55 METAR KW99 300955Z AUTO 00000KT 1/4SM FG OVC001 A2994 RMK AO2 =
2014-09-30 05:35 METAR KW99 300935Z AUTO 00000KT 1SM BR OVC001 A2994 RMK AO2 =
2014-09-30 05:15 METAR KW99 300915Z AUTO 00000KT 1/4SM FG OVC001 A2994 RMK AO2 =
2014-09-30 04:55 METAR KW99 300855Z AUTO 00000KT 1/4SM FG OVC001 A2994 RMK AO2 =
2014-09-30 04:35 METAR KW99 300835Z AUTO 00000KT 1SM BR BKN001 BKN060 A2994 RMK AO2 =
2014-09-30 04:15 METAR KW99 300815Z AUTO 00000KT 1 1/2SM BR VV007 A2994 RMK AO2 =
2014-09-30 03:55 METAR KW99 300755Z AUTO 00000KT 3SM BR SCT055 BKN090 A2993 RMK AO2 =
2014-09-30 03:35 METAR KW99 300735Z AUTO 00000KT 5SM HZ BKN090 A2994 RMK AO2 =
2014-09-30 03:15 METAR KW99 300715Z AUTO 00000KT 1/2SM FG SCT001 BKN055 BKN100 A2994 RMK AO2 =
2014-09-30 02:55 METAR KW99 300655Z AUTO 00000KT 5SM HZ CLR A2994 RMK AO2 =
2014-09-30 02:35 METAR KW99 300635Z AUTO 00000KT 1/2SM FG VV005 A2994 RMK AO2 =
2014-09-30 02:15 METAR KW99 300615Z AUTO 00000KT 3/4SM BR VV005 A2995 RMK AO2 =
2014-09-30 01:55 METAR KW99 300555Z AUTO 00000KT 4SM HZ CLR A2995 RMK AO2 =
2014-09-30 01:35 METAR KW99 300535Z AUTO 00000KT 7SM CLR A2995 RMK AO2 =
2014-09-30 01:15 METAR KW99 300515Z AUTO 00000KT 5SM HZ SCT060 SCT075 A2994 RMK AO2 =
2014-09-30 00:55 METAR KW99 300455Z AUTO 30003KT 3/4SM BR OVC060 A2995 RMK AO2 =
2014-09-30 00:35 METAR KW99 300435Z AUTO 00000KT 3SM BR SCT060 SCT100 A2996 RMK AO2 =
2014-09-30 00:15 METAR KW99 300415Z AUTO 00000KT 7SM SCT090 A2996 RMK AO2 =
2014-09-29 23:55 METAR KW99 300355Z AUTO 00000KT 10SM SCT070 OVC090 A2996 RMK AO2 =
2014-09-29 23:35 METAR KW99 300335Z AUTO 00000KT 10SM BKN070 BKN080 BKN100 A2997 RMK AO2 =
2014-09-29 23:15 METAR KW99 300315Z AUTO 00000KT 10SM BKN075 A2997 RMK AO2 =
2014-09-29 22:55 METAR KW99 300255Z AUTO 00000KT 7SM BKN075 A2997 RMK AO2 =
2014-09-29 22:35 METAR KW99 300235Z AUTO 00000KT 7SM CLR A2997 RMK AO2 =
2014-09-29 22:15 METAR KW99 300215Z AUTO 00000KT 10SM CLR A2997 RMK AO2 =
2014-09-29 21:55 METAR KW99 300155Z AUTO 00000KT 10SM CLR A2997 RMK AO2 =
2014-09-29 21:35 METAR KW99 300135Z AUTO 00000KT 10SM CLR A2997 RMK AO2 =
2014-09-29 21:15 METAR KW99 300115Z AUTO 00000KT 10SM SCT120 A2997 RMK AO2 =
2014-09-29 20:55 METAR KW99 300055Z AUTO 00000KT 10SM CLR A2997 RMK AO2 =
2014-09-29 20:35 METAR KW99 300035Z AUTO 00000KT 10SM CLR A2997 RMK AO2 =
2014-09-29 20:15 METAR KW99 300015Z AUTO 00000KT 10SM CLR 15/14 A2997 RMK AO2 T01540139 =
2014-09-29 19:55 METAR KW99 292355Z AUTO 00000KT 10SM CLR 16/15 A2996 RMK AO2 T01640147 10242
                 20163 =
2014-09-29 19:35 METAR KW99 292335Z AUTO 30004KT 10SM CLR 17/15 A2996 RMK AO2 T01720150 =
2014-09-29 19:15 METAR KW99 292315Z AUTO 00000KT 10SM SCT120 18/14 A2995 RMK AO2 T01840144 =
2014-09-29 18:55 METAR KW99 292255Z AUTO 00000KT 10SM OVC120 20/15 A2995 RMK AO2 T01970145 =
2014-09-29 18:35 METAR KW99 292235Z AUTO 00000KT 10SM OVC120 22/12 A2995 RMK AO2 T02220121 =
2014-09-29 18:15 METAR KW99 292215Z AUTO 10003KT 10SM OVC120 23/12 A2994 RMK AO2 T02260118 =
2014-09-29 17:55 METAR KW99 292155Z AUTO 09005KT 10SM OVC110 23/12 A2995 RMK AO2 T02330116 =
2014-09-29 17:35 METAR KW99 292135Z AUTO 11004KT 10SM BKN120 24/12 A2995 RMK AO2 T02350115 =
2014-09-29 17:15 METAR KW99 292115Z AUTO 09004KT 10SM OVC120 24/12 A2996 RMK AO2 T02370119 =
2014-09-29 16:55 METAR KW99 292055Z AUTO 10005KT 10SM OVC110 23/12 A2996 RMK AO2 T02340119 =
2014-09-29 16:35 METAR KW99 292035Z AUTO 11004KT 10SM OVC110 24/12 A2996 RMK AO2 T02380118 =
2014-09-29 16:15 METAR KW99 292015Z AUTO 08003KT 10SM OVC110 24/11 A2996 RMK AO2 T02400113 =
2014-09-29 15:55 METAR KW99 291955Z AUTO 07003KT 10SM BKN110 24/12 A2997 RMK AO2 T02360117 =
2014-09-29 15:35 METAR KW99 291935Z AUTO 11003KT 10SM BKN110 24/11 A2997 RMK AO2 T02370114 =
2014-09-29 15:15 METAR KW99 291915Z AUTO 00000KT 10SM OVC110 24/11 A2997 RMK AO2 T02350111 =
2014-09-29 14:55 METAR KW99 291855Z AUTO 00000KT 10SM OVC110 23/12 A2998 RMK AO2 T02320120 =
2014-09-29 14:35 METAR KW99 291835Z AUTO 00000KT 10SM OVC120 23/12 A2999 RMK AO2 T02250117 =
2014-09-29 14:15 METAR KW99 291815Z AUTO 22003KT 10SM OVC120 22/13 A3000 RMK AO2 T02230126 =
2014-09-29 13:55 METAR KW99 291755Z AUTO 00000KT 10SM OVC110 22/14 A3001 RMK AO2 T02160136 10217
                 20143 =
2014-09-29 13:35 METAR KW99 291735Z AUTO 00000KT 10SM OVC110 21/16 A3002 RMK AO2 T02130156 =
2014-09-29 13:15 METAR KW99 291715Z AUTO 00000KT 10SM OVC110 21/16 A3002 RMK AO2 T02090157 =
2014-09-29 12:55 METAR KW99 291655Z AUTO 00000KT 10SM BKN110 20/16 A3003 RMK AO2 T02020158 =
2014-09-29 12:35 METAR KW99 291635Z AUTO 00000KT 10SM SCT110 20/16 A3003 RMK AO2 T01950156 =
2014-09-29 12:15 METAR KW99 291615Z AUTO 00000KT 10SM -RA BKN110 19/16 A3004 RMK AO2 T01900158 =
2014-09-29 11:55 METAR KW99 291555Z AUTO 00000KT 10SM BKN110 18/16 A3005 RMK AO2 T01780155 =
2014-09-29 11:15 METAR KW99 291515Z AUTO 00000KT 10SM CLR 17/15 A3006 RMK AO2 T01710151 =
2014-09-29 10:55 METAR KW99 291455Z AUTO 00000KT 10SM CLR 17/15 A3007 RMK AO2 T01660147 =
2014-09-29 10:35 METAR KW99 291435Z AUTO 00000KT 10SM -DZ SCT110 16/15 A3006 RMK AO2 T01610146 =
2014-09-29 10:15 METAR KW99 291415Z AUTO 00000KT 10SM -DZ SCT027 SCT048 BKN110 16/14 A3007 RMK
                 AO2 T01550140 =
2014-09-29 09:55 METAR KW99 291355Z AUTO 00000KT 10SM -RA SCT027 BKN080 OVC110 15/14 A3006 RMK
                 AO2 T01520137 =
2014-09-29 09:35 METAR KW99 291335Z AUTO 00000KT 10SM -RA OVC110 15/14 A3006 RMK AO2 T01500136 =
2014-09-29 09:15 METAR KW99 291315Z AUTO 00000KT 10SM BKN120 15/14 A3006 RMK AO2 T01470135 =
2014-09-29 08:55 METAR KW99 291255Z AUTO 00000KT 10SM CLR 15/13 A3006 RMK AO2 T01470134 =
2014-09-29 08:35 METAR KW99 291235Z AUTO 00000KT 10SM CLR 14/13 A3006 RMK AO2 T01440132 =
2014-09-29 08:15 METAR KW99 291215Z AUTO 00000KT 10SM CLR 15/13 A3006 RMK AO2 T01450133 =
2014-09-29 07:55 METAR KW99 291155Z AUTO 00000KT 10SM CLR 14/13 A3006 RMK AO2 T01440131 =

Support USWX by starting your Amazon purchase here.